createdAt,value
2019-04-29T00:03:09.740Z,25.13
2019-04-29T00:08:14.759Z,24.63
2019-04-29T00:13:21.016Z,19.77
2019-04-29T00:18:39.185Z,28.87
2019-04-29T00:23:46.285Z,27.13
2019-04-29T00:28:51.669Z,24.93
2019-04-29T00:33:55.336Z,25.77
2019-04-29T00:39:17.319Z,18.63
2019-04-29T00:44:21.611Z,25.17
2019-04-29T00:49:26.124Z,27.93
2019-04-29T00:54:36.639Z,28.07
2019-04-29T00:59:42.955Z,28.27
2019-04-29T01:04:46.415Z,26.53
2019-04-29T01:09:50.987Z,36.90
2019-04-29T01:14:54.883Z,40.37
2019-04-29T01:19:58.196Z,32.37
2019-04-29T01:25:03.274Z,32.43
2019-04-29T01:30:08.352Z,32.47
2019-04-29T01:35:12.233Z,34.13
2019-04-29T01:40:39.231Z,33.97
2019-04-29T01:45:42.368Z,40.40
2019-04-29T01:50:46.674Z,38.83
2019-04-29T01:55:49.876Z,41.87
2019-04-29T02:00:53.369Z,39.17
2019-04-29T02:05:56.252Z,40.03
2019-04-29T02:10:59.092Z,39.20
2019-04-29T02:16:01.992Z,35.23
2019-04-29T02:21:04.934Z,45.63
2019-04-29T02:26:08.379Z,41.13
2019-04-29T02:31:29.133Z,39.07
2019-04-29T02:36:32.292Z,38.07
2019-04-29T02:41:43.848Z,53.60
2019-04-29T02:46:47.479Z,45.37
2019-04-29T02:51:52.831Z,44.80
2019-04-29T02:57:10.375Z,52.47
2019-04-29T03:02:32.831Z,46.13
2019-04-29T03:07:35.753Z,55.33
2019-04-29T03:12:39.509Z,48.10
2019-04-29T03:17:43.022Z,45.63
2019-04-29T03:22:46.343Z,47.97
2019-04-29T03:27:49.882Z,46.77
2019-04-29T03:32:52.838Z,52.77
2019-04-29T03:37:56.304Z,62.80
2019-04-29T03:42:59.190Z,46.87
2019-04-29T03:48:02.428Z,46.90
2019-04-29T03:53:04.584Z,60.40
2019-04-29T03:58:08.176Z,49.03
2019-04-29T04:03:36.755Z,50.00
2019-04-29T04:09:04.333Z,42.03
2019-04-29T04:13:52.463Z,51.50
2019-04-29T04:19:05.525Z,49.90
2019-04-29T04:24:08.682Z,51.20
2019-04-29T04:29:12.048Z,54.63
2019-04-29T04:34:15.005Z,45.57
2019-04-29T04:39:18.171Z,43.97
2019-04-29T04:44:23.423Z,47.43
2019-04-29T04:49:26.216Z,40.60
2019-04-29T04:54:31.436Z,48.43
2019-04-29T04:59:34.579Z,47.80
2019-04-29T05:04:37.263Z,40.27
2019-04-29T05:09:40.400Z,35.47
2019-04-29T05:14:43.289Z,44.50
2019-04-29T05:19:46.817Z,40.07
2019-04-29T05:24:50.050Z,50.70
2019-04-29T05:29:52.928Z,34.87
2019-04-29T05:34:57.769Z,36.63
2019-04-29T05:40:00.568Z,40.60
2019-04-29T05:45:10.853Z,36.23
2019-04-29T05:50:30.522Z,40.43
2019-04-29T05:55:32.681Z,42.57
2019-04-29T06:00:36.039Z,39.47
2019-04-29T06:05:38.875Z,34.60
2019-04-29T06:10:42.324Z,35.43
2019-04-29T06:15:45.240Z,38.67
2019-04-29T06:20:48.437Z,34.20
2019-04-29T06:25:51.675Z,39.87
2019-04-29T06:30:56.452Z,40.97
2019-04-29T06:36:02.109Z,35.83
2019-04-29T06:41:05.532Z,36.60
2019-04-29T06:46:09.821Z,35.97
2019-04-29T06:51:12.797Z,33.30
2019-04-29T06:56:15.953Z,37.50
2019-04-29T07:01:19.445Z,31.67
2019-04-29T07:06:22.673Z,35.27
2019-04-29T07:11:26.953Z,28.53
2019-04-29T07:16:32.085Z,31.77
2019-04-29T07:21:35.647Z,30.20
2019-04-29T07:26:39.179Z,26.70
2019-04-29T07:31:42.691Z,28.60
2019-04-29T07:36:46.236Z,30.40
2019-04-29T07:41:49.573Z,33.60
2019-04-29T07:46:57.882Z,30.43
2019-04-29T07:52:00.364Z,34.40
2019-04-29T07:57:03.591Z,40.50
2019-04-29T08:02:06.580Z,29.40
2019-04-29T08:07:09.994Z,28.60
2019-04-29T08:12:13.088Z,28.27
2019-04-29T08:17:16.601Z,34.37
2019-04-29T08:22:22.910Z,27.43
2019-04-29T08:27:39.088Z,33.60
2019-04-29T08:32:31.688Z,30.30
2019-04-29T08:37:35.348Z,23.03
2019-04-29T08:42:46.471Z,24.60
2019-04-29T08:47:47.345Z,27.23
2019-04-29T08:52:50.247Z,32.47
2019-04-29T08:57:53.399Z,25.33
2019-04-29T09:02:56.266Z,28.57
2019-04-29T09:08:00.267Z,38.77
2019-04-29T09:13:03.104Z,40.70
2019-04-29T09:18:06.503Z,43.20
2019-04-29T09:23:12.423Z,43.70
2019-04-29T09:28:18.413Z,43.17
2019-04-29T09:33:21.067Z,47.20
2019-04-29T09:38:24.258Z,47.83
2019-04-29T09:43:49.762Z,52.20
2019-04-29T09:48:53.008Z,57.27
2019-04-29T09:53:56.223Z,59.50
2019-04-29T09:59:17.545Z,56.53
2019-04-29T10:04:30.141Z,52.90
2019-04-29T10:09:33.773Z,50.40
2019-04-29T10:14:36.752Z,46.93
2019-04-29T10:19:54.453Z,46.70
2019-04-29T10:24:57.664Z,48.23
2019-04-29T10:30:00.571Z,46.87
2019-04-29T10:35:08.671Z,45.33
2019-04-29T10:40:37.475Z,64.63
2019-04-29T10:46:15.326Z,49.23
2019-04-29T10:51:18.004Z,47.60
2019-04-29T10:56:21.434Z,44.80
2019-04-29T11:02:14.067Z,41.33
2019-04-29T11:07:35.590Z,45.73
2019-04-29T11:12:38.850Z,51.30
2019-04-29T11:17:44.685Z,46.47
2019-04-29T11:22:53.283Z,44.90
2019-04-29T11:27:57.392Z,42.63
2019-04-29T11:33:19.878Z,41.67
2019-04-29T11:38:23.419Z,47.90
2019-04-29T11:43:28.340Z,39.97
2019-04-29T11:48:31.912Z,40.57
2019-04-29T11:53:36.984Z,37.87
2019-04-29T11:58:46.355Z,38.93
2019-04-29T12:03:51.554Z,32.67
2019-04-29T12:08:55.159Z,27.10
2019-04-29T12:14:13.683Z,26.60
2019-04-29T12:19:23.036Z,36.47
2019-04-29T12:24:26.241Z,27.00
2019-04-29T12:29:29.439Z,20.27
2019-04-29T12:35:01.248Z,13.53
2019-04-29T12:40:33.584Z,14.40
2019-04-29T12:45:41.762Z,13.30
2019-04-29T12:50:45.481Z,16.27
2019-04-29T12:55:53.461Z,14.10
2019-04-29T13:01:01.156Z,12.60
2019-04-29T13:06:15.591Z,13.00
2019-04-29T13:11:20.960Z,12.30
2019-04-29T13:17:13.941Z,24.27
2019-04-29T13:22:10.586Z,13.60
2019-04-29T13:27:16.420Z,24.80
2019-04-29T13:32:17.456Z,11.77
2019-04-29T13:37:22.200Z,21.50
2019-04-29T13:42:25.661Z,15.03
2019-04-29T13:47:44.516Z,16.13
2019-04-29T13:52:47.890Z,12.10
2019-04-29T13:57:54.876Z,20.80
2019-04-29T14:03:00.329Z,11.50
2019-04-29T14:08:04.043Z,15.93
2019-04-29T14:13:15.147Z,12.23
2019-04-29T14:18:13.611Z,11.13
2019-04-29T14:23:17.127Z,18.93
2019-04-29T14:28:20.370Z,16.20
2019-04-29T14:33:27.699Z,15.67
2019-04-29T14:38:30.577Z,15.67
2019-04-29T14:43:54.905Z,15.40
2019-04-29T14:49:14.497Z,17.10
2019-04-29T14:54:17.028Z,16.40
2019-04-29T14:59:20.688Z,15.03
2019-04-29T15:04:26.287Z,20.17
2019-04-29T15:09:29.270Z,23.50
2019-04-29T15:14:49.162Z,16.67
2019-04-29T15:20:07.352Z,20.17
2019-04-29T15:25:10.840Z,21.50
2019-04-29T15:30:13.643Z,21.23
2019-04-29T15:35:19.829Z,16.50
2019-04-29T15:40:26.321Z,24.73
2019-04-29T15:45:28.055Z,16.53
2019-04-29T15:50:32.750Z,20.50
2019-04-29T15:55:39.467Z,19.00
2019-04-29T16:00:41.940Z,15.73
2019-04-29T16:06:21.180Z,17.60
2019-04-29T16:11:34.781Z,16.73
2019-04-29T16:16:38.023Z,12.63
2019-04-29T16:21:41.770Z,15.43
2019-04-29T16:26:45.054Z,16.63
2019-04-29T16:31:48.195Z,19.83
2019-04-29T16:36:52.577Z,17.93
2019-04-29T16:42:04.810Z,15.77
2019-04-29T16:47:13.234Z,22.90
2019-04-29T16:52:15.556Z,20.70
2019-04-29T16:57:18.857Z,18.70
2019-04-29T17:02:22.930Z,15.90
2019-04-29T17:07:26.277Z,17.83
2019-04-29T17:17:40.745Z,20.90
2019-04-29T17:22:44.804Z,14.23
2019-04-29T17:28:11.926Z,15.87
2019-04-29T17:33:26.321Z,16.10
2019-04-29T17:35:17.752Z,13.13
2019-04-29T17:38:22.226Z,12.13
2019-04-29T17:43:44.764Z,12.67
2019-04-29T17:48:54.072Z,17.70
2019-04-29T17:54:00.030Z,15.13
2019-04-29T17:59:18.191Z,14.13
2019-04-29T18:04:36.075Z,16.00
2019-04-29T18:09:50.270Z,11.10
2019-04-29T18:14:55.065Z,8.87
2019-04-29T18:20:30.701Z,8.30
2019-04-29T18:25:48.777Z,11.40
2019-04-29T18:30:56.048Z,11.23
2019-04-29T18:36:04.145Z,5.23
2019-04-29T18:41:01.839Z,9.33
2019-04-29T18:46:12.270Z,8.43
2019-04-29T18:51:10.931Z,14.17
2019-04-29T18:56:14.883Z,12.17
2019-04-29T19:01:19.750Z,10.80
2019-04-29T19:06:23.946Z,6.23
2019-04-29T19:11:32.469Z,6.87
2019-04-29T19:16:33.630Z,4.93
2019-04-29T19:21:36.991Z,9.70
2019-04-29T19:26:40.542Z,4.50
2019-04-29T19:31:48.640Z,10.53
2019-04-29T19:36:50.719Z,4.83
2019-04-29T19:41:55.709Z,4.77
2019-04-29T19:46:59.295Z,12.27
2019-04-29T19:52:02.532Z,12.77
2019-04-29T19:57:07.500Z,5.00
2019-04-29T20:02:11.750Z,4.80
2019-04-29T20:07:17.328Z,6.03
2019-04-29T20:12:21.004Z,12.00
2019-04-29T20:17:45.727Z,10.10
2019-04-29T20:22:51.173Z,10.93
2019-04-29T20:28:05.102Z,8.80
2019-04-29T20:33:01.167Z,10.40
2019-04-29T20:38:05.528Z,7.90
2019-04-29T20:43:08.772Z,6.87
2019-04-29T20:48:17.871Z,11.30
2019-04-29T20:53:30.860Z,7.90
2019-04-29T20:58:35.991Z,10.63
2019-04-29T21:03:40.911Z,10.53
2019-04-29T21:08:51.152Z,8.63
2019-04-29T21:14:00.818Z,17.20
2019-04-29T21:19:08.516Z,12.07
2019-04-29T21:24:14.777Z,10.80
2019-04-29T21:29:19.420Z,15.10
2019-04-29T21:34:25.523Z,13.17
2019-04-29T21:39:38.941Z,15.73
2019-04-29T21:44:42.489Z,12.93
2019-04-29T21:49:49.732Z,14.23
2019-04-29T21:54:50.972Z,14.10
2019-04-29T21:59:55.546Z,18.23
2019-04-29T22:04:59.047Z,13.43
2019-04-29T22:10:02.543Z,19.10
2019-04-29T22:15:05.995Z,14.47
2019-04-29T22:20:10.493Z,15.97
2019-04-29T22:25:15.604Z,19.07
2019-04-29T22:30:19.867Z,26.73
2019-04-29T22:35:25.186Z,16.93
2019-04-29T22:40:28.365Z,16.00
2019-04-29T22:45:34.230Z,11.90
2019-04-29T22:50:38.066Z,19.30
2019-04-29T22:55:42.225Z,14.27
2019-04-29T23:00:45.810Z,17.57
2019-04-29T23:05:48.698Z,12.37
2019-04-29T23:10:52.226Z,11.63
2019-04-29T23:16:00.998Z,14.10
2019-04-29T23:21:16.532Z,18.53
2019-04-29T23:26:20.372Z,10.77
2019-04-29T23:31:27.197Z,14.83
2019-04-29T23:36:29.143Z,11.30
2019-04-29T23:41:32.923Z,12.80
2019-04-29T23:46:36.591Z,20.17
2019-04-29T23:51:39.450Z,14.27
2019-04-29T23:57:11.269Z,13.97
